Airfield :
LOGIN :

Register | Disclaimer

   EN    FR    IT 

 










Legend :    VFR   Marginal VFR   IFR   Intensive IFR   Very Intensive IFR
Visi :
Ceiling :
>= 8 km
>= 3000ft
5 to 8 km
1000 to 3000 ft
1500m to 5 km
500 to 1000 ft
800 to 1500m
200 to 500 ft
< 800m
< 200 ft
Symbols :   Thunderstorms  Fog  Heavy snow  Heavy precipitations  Wind > 20 kt
SIGMETs :     Misc.  Thunderstorms  Icing  Turbulence  Mountain Waves  Volcanic Ashes






- Airport Elevation : 308 ft
- IATA code : POZ


EPPO - Poznan-Lawica

CURRENT METAR :
  • 231030Z 28017KT 9999 BKN022 08/04 Q1021

EXPIRED METARs :
  • 231000Z 29019KT 9999 BKN019 08/03 Q1020
  • 230930Z 27015KT 9999 BKN018 08/04 Q1020
  • 230900Z 29015KT 9999 SCT019 08/04 Q1019
  • 230830Z 27014KT 9999 BKN017CB 07/04 Q1019
  • 230800Z 27015G25KT 9999 BKN017 07/04 Q1018

TAF TAF EPPO
Valid from the 23 at 06:00 until the 24 at 06:00 UTC


230530Z 2306/2406 26015KT CAVOK
TEMPO 2306/2308 28015G25KT
TEMPO 2308/2315 28015G30KT BKN020CB
BECMG 2315/2318 25005KT
BECMG 2403/2406 0600 FG BKN001



MET'MAP, your aeronautical weather chart ! - Copyright ORBIFLY December 2007 - Disclaimer

ORBIFLY MET'MAP TEAM :

Programming & Development : Alexandra Zaïnal
Concept & original design : Baudouin d'Aumeries
Assistance for programming : Marc-Olivier Méhu
Technical & hardware support : Manuel Goepfert

Contact : metmap@orbifly.com




SOURCES & CREDITS :

   NOAA